CST,Max TemperatureF,Mean TemperatureF,Min TemperatureF,Max Dew PointF,MeanDew PointF,Min DewpointF,Max Humidity, Mean Humidity, Min Humidity, Max Sea Level PressureIn, Mean Sea Level PressureIn, Min Sea Level PressureIn, Max VisibilityMiles, Mean VisibilityMiles, Min VisibilityMiles, Max Wind SpeedMPH, Mean Wind SpeedMPH, Max Gust SpeedMPH,PrecipitationIn, CloudCover, Events, WindDirDegrees
2013-1-1,57,54,50,55,51,43,100,86,71,30.09,30.02,29.94,10,5,1,14,4,20,1.14,8,Rain,339
2013-1-2,50,45,39,46,38,34,93,85,76,30.21,30.14,30.05,10,7,5,15,6,22,0.01,8,Rain,334
2013-1-3,46,40,33,34,30,25,89,66,42,30.38,30.28,30.19,10,7,4,12,4,16,0.00,2,,333
2013-1-4,52,41,30,31,26,21,82,60,30,30.45,30.39,30.35,10,10,7,8,1,,0.00,0,,333
2013-1-5,48,41,33,39,31,25,89,66,42,30.43,30.35,30.29,10,9,4,6,1,9,0.10,5,Rain,150
2013-1-6,51,44,37,40,38,34,89,74,59,30.31,30.27,30.22,10,8,3,12,2,16,0.01,5,,316
2013-1-7,57,44,30,36,31,29,92,64,35,30.37,30.31,30.27,10,9,5,10,2,17,0.00,0,,54
2013-1-8,61,50,39,49,42,31,83,70,57,30.34,30.27,30.23,10,10,9,7,1,10,0.00,4,,89
2013-1-9,65,59,52,61,55,48,100,87,73,30.36,30.31,30.27,10,8,2,8,4,13,0.06,8,Rain,80
2013-1-10,69,66,62,65,63,60,100,94,87,30.33,30.23,30.02,10,6,1,21,8,33,0.14,8,Rain,120
2013-1-11,69,66,62,66,63,60,93,87,81,30.16,30.11,30.07,10,7,1,16,5,21,0.34,8,Rain,164
2013-1-12,74,70,65,65,62,58,93,79,64,30.13,30.05,29.99,10,10,7,15,8,20,T,6,Rain,167
2013-1-13,74,63,52,66,62,49,87,78,68,30.09,30.00,29.93,10,7,1,18,10,26,0.75,8,Rain-Thunderstorm,199
2013-1-14,52,46,39,48,43,37,96,93,89,30.20,30.13,30.06,10,4,1,14,6,21,0.90,8,Rain,1
2013-1-15,51,47,42,52,45,41,100,96,92,30.10,30.04,29.94,10,3,0,8,2,12,0.93,8,Fog-Rain,353
2013-1-16,50,46,42,48,43,40,100,95,89,30.07,30.01,29.95,10,6,1,12,5,16,0.43,8,Rain,321
2013-1-17,43,39,34,43,37,32,100,90,79,30.36,30.03,29.91,10,4,0,22,9,30,0.26,7,Fog-Rain-Snow,312
2013-1-18,56,45,33,33,31,24,89,60,30,30.56,30.46,30.39,10,8,2,13,3,17,0.00,0,,345
2013-1-19,59,45,30,36,31,27,89,61,33,30.44,30.34,30.24,10,10,8,10,1,16,0.00,0,,157
2013-1-20,63,48,33,42,36,30,96,66,36,30.26,30.20,30.14,10,10,10,9,1,13,0.00,0,,327
2013-1-21,57,47,36,42,31,19,92,64,35,30.24,30.18,30.12,10,10,8,14,4,18,0.00,0,,338
2013-1-22,49,40,31,28,20,15,82,57,31,30.40,30.33,30.23,10,10,10,12,4,15,0.00,0,,344
2013-1-23,55,44,32,42,29,21,77,58,38,30.42,30.33,30.23,10,10,10,12,2,15,0.00,7,,194
2013-1-24,60,54,47,45,36,22,86,60,34,30.32,30.27,30.21,10,10,8,10,4,17,0.00,6,,344
2013-1-25,67,55,42,57,43,23,93,66,38,30.29,30.19,30.09,10,9,2,20,6,28,0.09,8,Rain,183
2013-1-26,57,51,44,52,44,35,100,74,47,30.31,30.23,30.16,10,8,2,9,2,14,0.01,6,Rain,339
2013-1-27,64,55,45,41,37,33,86,62,37,30.37,30.31,30.28,10,10,10,9,4,14,0.00,5,,88
2013-1-28,68,58,48,54,49,39,93,76,59,30.34,30.27,30.20,10,8,5,12,3,14,0.00,4,,139
2013-1-29,74,64,53,64,59,51,97,83,68,30.21,30.06,29.85,10,6,1,20,8,28,T,7,,155
2013-1-30,71,57,42,67,55,30,93,76,58,30.00,29.70,29.62,10,6,0,25,10,40,2.35,8,Fog-Rain-Thunderstorm,225
2013-1-31,52,43,34,29,26,24,75,55,35,30.23,30.16,30.04,10,10,10,15,6,21,0.00,0,,272